Time;durP1;ratioP1;P1;durP2;ratioP2;P2;SDS_P1;SDS_P2;PMS_P1;PMS_P2;Temp;Humidity;BMP_temperature;BMP_pressure;BME280_temperature;BME280_humidity;BME280_pressure;Samples;Min_cycle;Max_cycle;Signal;HPM_P1;HPM_P2
2021/11/22 00:01:32;;;;;;;6.42;5.72;;;;;;;9.07;67.05;98802.79;1759382;79;21064;-55
2021/11/22 00:03:58;;;;;;;5.45;4.97;;;;;;;9.04;67.13;98795.38;1763944;79;22944;-55
2021/11/22 00:06:26;;;;;;;5.67;5.17;;;;;;;9.03;67.21;98801.69;1759522;79;20993;-54
2021/11/22 00:08:53;;;;;;;3.85;3.55;;;;;;;9.00;67.21;98805.44;1754523;79;21109;-54
2021/11/22 00:11:19;;;;;;;3.40;3.10;;;;;;;8.98;67.29;98805.99;1757190;79;21888;-53
2021/11/22 00:13:45;;;;;;;4.20;3.87;;;;;;;8.99;67.37;98813.09;1758648;79;22406;-54
2021/11/22 00:16:14;;;;;;;3.92;3.62;;;;;;;9.01;67.43;98817.05;1748573;79;21523;-54
2021/11/22 00:18:44;;;;;;;5.40;4.92;;;;;;;9.02;67.47;98814.24;1758594;79;22342;-54
2021/11/22 00:21:12;;;;;;;4.85;4.00;;;;;;;9.04;67.45;98820.88;1755761;79;21117;-53
2021/11/22 00:23:40;;;;;;;5.50;5.00;;;;;;;9.05;67.42;98814.55;1750561;79;21022;-54
2021/11/22 00:26:06;;;;;;;5.33;4.92;;;;;;;9.05;67.43;98819.92;1757149;79;21092;-54
2021/11/22 00:28:34;;;;;;;4.53;4.20;;;;;;;9.03;67.41;98824.50;1752853;79;22369;-54
2021/11/22 00:31:08;;;;;;;4.85;4.40;;;;;;;9.01;67.40;98823.75;1709380;79;21084;-54
2021/11/22 00:33:36;;;;;;;5.15;4.65;;;;;;;8.97;67.44;98813.66;1748434;79;21022;-54
2021/11/22 00:36:22;;;;;;;3.62;3.33;;;;;;;8.93;67.50;98825.50;1716069;81;21094;-54
2021/11/22 00:38:48;;;;;;;3.47;3.12;;;;;;;8.91;67.57;98827.42;1757803;79;21125;-53
2021/11/22 00:41:15;;;;;;;4.08;3.22;;;;;;;8.90;67.59;98823.01;1751478;79;21082;-53
2021/11/22 00:43:41;;;;;;;4.08;3.40;;;;;;;8.92;67.64;98830.50;1753134;79;21097;-54
2021/11/22 00:46:07;;;;;;;3.05;2.85;;;;;;;8.95;67.65;98828.97;1752804;79;21082;-53
2021/11/22 00:48:35;;;;;;;3.90;3.58;;;;;;;8.96;67.55;98825.34;1753041;79;21033;-53
2021/11/22 00:51:01;;;;;;;4.42;4.12;;;;;;;8.98;67.48;98831.97;1753931;79;21030;-53
2021/11/22 00:53:32;;;;;;;3.52;3.22;;;;;;;8.99;67.41;98832.36;1757183;79;21818;-54
2021/11/22 00:55:58;;;;;;;6.05;4.58;;;;;;;8.97;67.37;98832.91;1715119;81;21039;-53
2021/11/22 00:58:25;;;;;;;4.42;4.08;;;;;;;8.95;67.37;98839.70;1754518;79;21077;-54
2021/11/22 01:00:51;;;;;;;3.60;3.40;;;;;;;8.92;67.34;98839.03;1759654;79;21046;-53
2021/11/22 01:03:17;;;;;;;4.03;3.50;;;;;;;8.89;67.36;98837.38;1690999;82;21073;-54
2021/11/22 01:05:44;;;;;;;3.05;2.77;;;;;;;8.87;67.38;98836.59;1755504;79;21126;-54
2021/11/22 01:08:11;;;;;;;2.25;2.08;;;;;;;8.87;67.40;98847.32;1752655;79;21097;-54
2021/11/22 01:10:38;;;;;;;2.98;2.77;;;;;;;8.88;67.40;98850.40;1755946;79;21038;-54
2021/11/22 01:13:06;;;;;;;4.62;4.10;;;;;;;8.89;67.40;98848.11;1756014;79;21114;-53
2021/11/22 01:15:34;;;;;;;4.30;4.00;;;;;;;8.91;67.41;98844.00;1755082;79;20962;-54
2021/11/22 01:18:01;;;;;;;3.77;3.47;;;;;;;8.92;67.29;98843.92;1752630;79;21123;-53
2021/11/22 01:20:34;;;;;;;4.87;4.30;;;;;;;8.92;67.28;98846.61;1758363;79;20921;-54
2021/11/22 01:23:05;;;;;;;3.45;3.20;;;;;;;8.92;67.20;98843.92;1758242;79;21137;-53
2021/11/22 01:25:32;;;;;;;4.50;3.50;;;;;;;8.91;67.21;98843.53;1697396;82;21303;-54
2021/11/22 01:27:59;;;;;;;4.67;4.37;;;;;;;8.89;67.18;98845.90;1752135;79;22261;-54
2021/11/22 01:30:25;;;;;;;3.92;3.52;;;;;;;8.86;67.17;98846.92;1755794;79;21188;-54
2021/11/22 01:32:51;;;;;;;3.33;3.02;;;;;;;8.83;67.19;98851.61;1752316;79;21117;-54
2021/11/22 01:35:18;;;;;;;4.22;3.85;;;;;;;8.78;67.27;98846.95;1752864;79;21010;-53
2021/11/22 01:37:45;;;;;;;3.17;2.98;;;;;;;8.75;67.33;98845.33;1762257;79;21017;-53
2021/11/22 01:40:13;;;;;;;2.92;2.72;;;;;;;8.72;67.41;98846.36;1753730;79;21082;-54
2021/11/22 01:42:41;;;;;;;3.20;2.90;;;;;;;8.72;67.48;98846.83;1754992;79;21674;-54
2021/11/22 01:45:09;;;;;;;3.27;2.98;;;;;;;8.71;67.57;98845.96;1756483;79;21748;-54
2021/11/22 01:47:36;;;;;;;3.17;2.87;;;;;;;8.73;67.59;98847.23;1759660;79;20899;-53
2021/11/22 01:50:07;;;;;;;3.25;3.00;;;;;;;8.73;67.58;98848.56;1756854;79;21364;-54
2021/11/22 01:52:36;;;;;;;4.62;4.22;;;;;;;8.72;67.61;98849.05;1760424;79;20871;-53
2021/11/22 01:55:04;;;;;;;4.78;4.33;;;;;;;8.70;67.66;98854.09;1701098;82;21470;-53
2021/11/22 01:57:32;;;;;;;4.67;4.33;;;;;;;8.68;67.74;98854.64;1756420;79;20895;-54
2021/11/22 01:59:59;;;;;;;5.20;4.05;;;;;;;8.65;67.78;98854.36;1765909;79;21429;-52
2021/11/22 02:02:25;;;;;;;3.52;3.22;;;;;;;8.62;67.85;98853.64;1758888;79;21490;-54
2021/11/22 02:04:52;;;;;;;3.30;2.90;;;;;;;8.59;67.95;98853.33;1755823;79;21295;-53
2021/11/22 02:07:18;;;;;;;3.67;3.30;;;;;;;8.59;68.05;98856.52;1758115;79;21464;-53
2021/11/22 02:09:45;;;;;;;3.17;2.87;;;;;;;8.60;68.11;98856.88;1764240;79;21412;-54
2021/11/22 02:12:11;;;;;;;3.65;3.37;;;;;;;8.61;68.19;98858.14;1765560;79;20891;-53
2021/11/22 02:14:38;;;;;;;4.20;3.65;;;;;;;8.63;68.20;98860.27;1766041;79;20950;-54
2021/11/22 02:17:07;;;;;;;4.00;3.40;;;;;;;8.65;68.24;98865.56;1764556;79;20895;-53
2021/11/22 02:19:42;;;;;;;4.65;3.75;;;;;;;8.66;68.22;98864.14;1766556;79;22485;-54
2021/11/22 02:22:08;;;;;;;;;;;;;;;8.65;68.20;98855.70;1759982;79;21373;-54
2021/11/22 02:24:36;;;;;;;4.55;4.08;;;;;;;8.64;68.16;98860.67;1765281;79;20156;-53
2021/11/22 02:27:02;;;;;;;5.30;4.10;;;;;;;8.61;68.17;98869.34;1763431;79;20930;-54
2021/11/22 02:29:29;;;;;;;6.20;5.37;;;;;;;8.57;68.21;98871.34;1764042;79;20912;-54
2021/11/22 02:31:56;;;;;;;3.92;3.62;;;;;;;8.53;68.23;98872.92;1767456;79;21067;-54
2021/11/22 02:34:22;;;;;;;4.90;4.42;;;;;;;8.48;68.27;98870.97;1761348;79;20926;-54
2021/11/22 02:36:49;;;;;;;3.85;3.52;;;;;;;8.43;68.32;98867.65;1727439;80;20962;-53
2021/11/22 02:39:16;;;;;;;4.10;3.70;;;;;;;8.39;68.41;98875.01;1700826;82;21490;-54
2021/11/22 02:41:42;;;;;;;3.52;3.22;;;;;;;8.38;68.50;98879.11;1712799;81;21109;-54
2021/11/22 02:44:10;;;;;;;3.83;3.05;;;;;;;8.36;68.58;98879.19;1695155;82;22377;-53
2021/11/22 02:46:36;;;;;;;2.70;2.50;;;;;;;8.33;68.62;98892.30;1725803;80;21758;-54
2021/11/22 02:49:03;;;;;;;4.37;3.98;;;;;;;8.32;68.66;98893.72;1696782;82;21740;-53
2021/11/22 02:51:29;;;;;;;3.10;2.90;;;;;;;8.29;68.76;98893.83;1726990;80;21576;-54
2021/11/22 02:54:03;;;;;;;4.30;3.90;;;;;;;8.26;68.80;98896.19;1724499;80;21104;-53
2021/11/22 02:56:31;;;;;;;4.30;4.00;;;;;;;8.23;68.86;98897.71;1726739;80;21122;-54
2021/11/22 02:58:58;;;;;;;5.75;4.17;;;;;;;8.18;68.96;98893.05;1727628;80;21064;-55
2021/11/22 03:01:25;;;;;;;4.58;4.17;;;;;;;8.15;69.03;98896.37;1723946;80;21411;-55
2021/11/22 03:03:52;;;;;;;5.20;4.65;;;;;;;8.10;69.08;98897.06;1698560;82;20928;-55
2021/11/22 03:06:18;;;;;;;4.37;4.03;;;;;;;8.06;69.20;98892.36;1728172;80;21731;-55
2021/11/22 03:08:45;;;;;;;5.83;5.22;;;;;;;8.03;69.31;98897.00;1689352;82;21607;-55
2021/11/22 03:11:14;;;;;;;5.20;4.05;;;;;;;7.98;69.40;98898.11;1677673;83;21016;-55
2021/11/22 03:13:42;;;;;;;4.90;4.33;;;;;;;7.97;69.53;98899.06;1680269;83;21290;-55
2021/11/22 03:16:09;;;;;;;3.70;3.40;;;;;;;7.97;69.66;98904.89;1698060;82;21045;-55
2021/11/22 03:18:37;;;;;;;3.55;3.25;;;;;;;7.97;69.82;98901.73;1697291;82;20999;-55
2021/11/22 03:21:03;;;;;;;3.75;3.30;;;;;;;7.98;69.94;98911.52;1697335;82;21098;-55
2021/11/22 03:23:30;;;;;;;3.00;2.72;;;;;;;7.99;70.08;98910.54;1694320;82;20986;-55
2021/11/22 03:25:57;;;;;;;4.20;3.80;;;;;;;8.02;70.16;98914.89;1691674;82;21003;-55
2021/11/22 03:28:25;;;;;;;4.17;3.72;;;;;;;8.03;70.21;98916.63;1691414;82;21307;-55
2021/11/22 03:30:51;;;;;;;5.65;5.15;;;;;;;8.05;70.25;98914.74;1689814;82;21156;-55
2021/11/22 03:33:19;;;;;;;4.78;4.35;;;;;;;8.06;70.26;98916.95;1690106;82;21180;-55
2021/11/22 03:35:46;;;;;;;4.97;4.20;;;;;;;8.06;70.31;98921.84;1691703;82;21109;-55
2021/11/22 03:38:16;;;;;;;6.65;3.25;;;;;;;8.07;70.31;98922.71;1690692;82;21072;-55
2021/11/22 03:40:44;;;;;;;5.25;4.85;;;;;;;8.05;70.34;98920.58;1695685;82;20974;-55
2021/11/22 03:43:14;;;;;;;4.70;4.30;;;;;;;8.02;70.36;98940.34;1692571;82;21390;-55
2021/11/22 03:45:42;;;;;;;4.95;4.55;;;;;;;7.99;70.44;98940.02;1690436;82;22116;-55
2021/11/22 03:48:09;;;;;;;4.50;3.60;;;;;;;8.00;70.49;98947.59;1691458;82;21544;-55
2021/11/22 03:50:36;;;;;;;4.22;3.83;;;;;;;8.01;70.56;98941.77;1661832;83;21506;-55
2021/11/22 03:53:03;;;;;;;3.72;3.22;;;;;;;8.03;70.62;98946.58;1688926;82;21097;-55
2021/11/22 03:55:30;;;;;;;3.52;3.20;;;;;;;8.05;70.70;98951.39;1686950;82;21469;-55
2021/11/22 03:57:56;;;;;;;3.65;3.27;;;;;;;8.07;70.72;98966.46;1686222;82;21134;-55
2021/11/22 04:00:24;;;;;;;5.60;4.47;;;;;;;8.09;70.76;98965.89;1693215;82;21009;-55
2021/11/22 04:02:51;;;;;;;4.47;4.10;;;;;;;8.12;70.76;98967.09;1690714;82;21145;-55
2021/11/22 04:05:17;;;;;;;4.92;4.53;;;;;;;8.14;70.73;98963.86;1687736;82;21082;-55
2021/11/22 04:07:44;;;;;;;4.25;3.80;;;;;;;8.14;70.71;98971.91;1690687;82;21432;-55
2021/11/22 04:10:10;;;;;;;4.65;4.25;;;;;;;8.15;70.66;98977.66;1697559;82;22232;-55
2021/11/22 04:12:37;;;;;;;5.03;4.53;;;;;;;8.14;70.68;98973.72;1710831;81;21146;-55
2021/11/22 04:15:05;;;;;;;5.25;4.67;;;;;;;8.13;70.64;98987.59;1709759;81;21122;-55
2021/11/22 04:17:34;;;;;;;5.78;4.80;;;;;;;8.12;70.63;98990.34;1704254;81;20984;-55
2021/11/22 04:20:00;;;;;;;4.30;3.98;;;;;;;8.09;70.66;98999.39;1691832;82;20976;-54
2021/11/22 04:22:26;;;;;;;3.47;3.15;;;;;;;8.06;70.68;98998.70;1751094;79;21104;-54
2021/11/22 04:24:53;;;;;;;3.05;2.70;;;;;;;8.05;70.74;98998.30;1753147;80;20967;-55
2021/11/22 04:27:20;;;;;;;2.98;2.67;;;;;;;8.06;70.78;99004.06;1748978;80;21081;-55
2021/11/22 04:29:46;;;;;;;4.35;3.52;;;;;;;8.08;70.82;99012.39;1748601;79;21484;-55
2021/11/22 04:32:13;;;;;;;4.05;3.70;;;;;;;8.12;70.79;99011.31;1746852;80;21496;-55
2021/11/22 04:34:39;;;;;;;2.98;2.72;;;;;;;8.15;70.74;99014.33;1745668;79;21623;-54
2021/11/22 04:37:06;;;;;;;4.80;2.80;;;;;;;8.17;70.58;99014.62;1749713;79;21659;-55
2021/11/22 04:39:33;;;;;;;3.58;2.95;;;;;;;8.16;70.46;99018.27;1751582;80;21468;-54
2021/11/22 04:42:00;;;;;;;2.22;1.60;;;;;;;8.13;70.30;99022.44;1753247;80;20921;-54
2021/11/22 04:44:27;;;;;;;2.52;2.30;;;;;;;8.11;70.07;99027.47;1752027;79;21406;-54
2021/11/22 04:46:53;;;;;;;1.77;1.17;;;;;;;8.06;69.93;99033.07;1757499;79;21768;-54
2021/11/22 04:49:19;;;;;;;2.05;1.00;;;;;;;7.99;69.72;99033.81;1749769;80;20907;-54
2021/11/22 04:51:46;;;;;;;3.52;3.22;;;;;;;7.96;69.58;99028.63;1752990;79;21350;-55
2021/11/22 04:54:12;;;;;;;0.80;0.60;;;;;;;7.94;69.46;99035.00;1749749;79;20904;-54
2021/11/22 04:56:39;;;;;;;1.07;0.78;;;;;;;7.92;69.27;99029.71;1751960;79;20915;-55
2021/11/22 04:59:05;;;;;;;1.20;0.70;;;;;;;7.89;69.13;99039.26;1748593;79;21094;-55
2021/11/22 05:01:32;;;;;;;1.47;0.65;;;;;;;7.90;69.04;99046.83;1750095;80;20979;-54
2021/11/22 05:04:00;;;;;;;1.50;0.70;;;;;;;7.90;68.88;99045.02;1755867;79;20978;-55
2021/11/22 05:06:26;;;;;;;0.62;0.60;;;;;;;7.90;68.80;99053.53;1751015;80;20923;-55
2021/11/22 05:08:53;;;;;;;0.82;0.60;;;;;;;7.87;68.58;99055.87;1752018;79;20962;-55
2021/11/22 05:11:19;;;;;;;1.00;0.60;;;;;;;7.86;68.53;99063.98;1760668;79;21099;-55
2021/11/22 05:13:46;;;;;;;3.03;0.60;;;;;;;7.85;68.42;99070.27;1760140;79;20924;-54
2021/11/22 05:16:12;;;;;;;1.00;0.60;;;;;;;7.82;68.29;99073.13;1757122;79;21436;-55
2021/11/22 05:18:39;;;;;;;0.97;0.60;;;;;;;7.78;68.29;99083.57;1756195;79;21449;-54
2021/11/22 05:21:05;;;;;;;0.80;0.50;;;;;;;7.76;68.29;99079.63;1758170;79;21830;-54
2021/11/22 05:23:31;;;;;;;2.90;0.70;;;;;;;7.74;68.27;99086.85;1753021;79;21101;-55
2021/11/22 05:25:58;;;;;;;0.68;0.50;;;;;;;7.72;68.24;99092.78;1752941;79;21054;-54
2021/11/22 05:28:27;;;;;;;0.93;0.50;;;;;;;7.72;68.21;99099.95;1759399;79;21018;-55
2021/11/22 05:30:53;;;;;;;1.95;0.57;;;;;;;7.73;68.24;99101.69;1758875;79;20934;-55
2021/11/22 05:33:19;;;;;;;1.17;0.50;;;;;;;7.73;68.21;99110.59;1758382;79;21259;-55
2021/11/22 05:35:45;;;;;;;1.35;0.60;;;;;;;7.73;68.16;99109.26;1702330;82;21312;-55
2021/11/22 05:38:12;;;;;;;0.78;0.50;;;;;;;7.75;68.14;99109.16;1760248;79;21597;-54
2021/11/22 05:40:38;;;;;;;1.42;0.68;;;;;;;7.76;68.13;99120.27;1757291;79;21355;-54
2021/11/22 05:43:05;;;;;;;0.80;0.60;;;;;;;7.75;68.10;99122.08;1760879;79;21472;-54
2021/11/22 05:45:32;;;;;;;2.15;0.60;;;;;;;7.73;68.04;99122.65;1753444;79;21476;-55
2021/11/22 05:47:59;;;;;;;1.00;0.60;;;;;;;7.69;68.06;99124.19;1753062;79;21139;-55
2021/11/22 05:50:25;;;;;;;0.90;0.50;;;;;;;7.64;68.06;99125.75;1752689;80;21042;-54
2021/11/22 05:52:53;;;;;;;1.25;0.53;;;;;;;7.57;68.14;99131.84;1754859;79;21050;-54
2021/11/22 05:55:33;;;;;;;0.50;0.47;;;;;;;7.53;68.24;99133.41;1761041;79;21362;-54
2021/11/22 05:57:53;;;;;;;1.75;0.50;;;;;;;7.47;68.36;99137.70;1703804;82;20956;-54
2021/11/22 06:00:19;;;;;;;1.77;0.50;;;;;;;7.42;68.47;99142.38;1718875;81;21139;-54
2021/11/22 06:02:45;;;;;;;0.60;0.40;;;;;;;7.39;68.61;99147.42;1750627;79;21047;-53
2021/11/22 06:05:12;;;;;;;0.83;0.50;;;;;;;7.39;68.68;99159.95;1755091;79;21171;-54
2021/11/22 06:07:39;;;;;;;1.97;0.53;;;;;;;7.38;68.75;99160.88;1730304;81;21063;-54
2021/11/22 06:12:39;;;;;;;1.27;0.60;;;;;;;7.44;68.81;99166.83;1836911;76;22411;-55
2021/11/22 06:15:06;;;;;;;0.93;0.50;;;;;;;7.41;68.82;99169.63;1806869;77;21436;-55
2021/11/22 06:17:33;;;;;;;1.20;0.50;;;;;;;7.40;68.81;99175.91;1807909;77;22839;-56
2021/11/22 06:20:00;;;;;;;1.53;0.50;;;;;;;7.38;68.80;99177.81;1809609;77;21591;-55
2021/11/22 06:22:26;;;;;;;1.20;0.60;;;;;;;7.36;68.87;99181.48;1805500;77;21470;-55
2021/11/22 06:24:53;;;;;;;0.80;0.50;;;;;;;7.33;68.94;99182.48;1770408;78;21000;-55
2021/11/22 06:27:20;;;;;;;1.90;0.50;;;;;;;7.33;69.00;99181.61;1770457;78;21016;-55
2021/11/22 06:29:47;;;;;;;1.00;0.40;;;;;;;7.34;69.01;99185.56;1768336;79;21157;-55
2021/11/22 06:32:13;;;;;;;2.25;0.50;;;;;;;7.37;69.00;99189.45;1780951;78;21107;-55
2021/11/22 06:34:41;;;;;;;1.20;0.50;;;;;;;7.40;69.03;99186.63;1796485;77;20886;-55
2021/11/22 06:37:08;;;;;;;0.72;0.60;;;;;;;7.47;68.88;99188.59;1796783;78;21008;-54
2021/11/22 06:39:35;;;;;;;1.98;0.50;;;;;;;7.54;68.58;99188.70;1796110;77;21061;-55
2021/11/22 06:42:03;;;;;;;0.72;0.55;;;;;;;7.58;68.27;99190.30;1796201;78;21112;-55
2021/11/22 06:44:29;;;;;;;1.67;0.67;;;;;;;7.59;68.06;99189.36;1799529;78;21017;-55
2021/11/22 06:46:55;;;;;;;1.10;0.60;;;;;;;7.60;67.86;99195.12;1792907;77;22071;-55
2021/11/22 06:49:22;;;;;;;0.83;0.53;;;;;;;7.60;67.59;99198.67;1793370;77;21495;-55
2021/11/22 06:51:48;;;;;;;1.30;0.78;;;;;;;7.60;67.40;99201.81;1794887;78;22268;-55
2021/11/22 06:54:16;;;;;;;1.12;0.70;;;;;;;7.57;67.28;99204.66;1794222;78;21091;-55
2021/11/22 06:56:42;;;;;;;1.30;0.87;;;;;;;7.53;67.33;99209.27;1796316;77;22366;-55
2021/11/22 06:59:10;;;;;;;1.30;0.70;;;;;;;7.53;67.44;99217.30;1795860;78;21399;-54
2021/11/22 07:01:37;;;;;;;1.07;0.60;;;;;;;7.56;67.60;99221.66;1793268;77;22185;-55
2021/11/22 07:04:04;;;;;;;1.40;0.57;;;;;;;7.62;67.67;99216.48;1794751;78;22284;-55
2021/11/22 07:06:31;;;;;;;0.80;0.50;;;;;;;7.66;67.82;99212.24;1793737;77;22964;-55
2021/11/22 07:08:58;;;;;;;0.83;0.60;;;;;;;7.72;67.89;99216.01;1797557;77;22133;-55
2021/11/22 07:11:24;;;;;;;0.50;0.40;;;;;;;7.82;67.91;99222.70;1800492;77;21507;-55
2021/11/22 07:13:51;;;;;;;0.67;0.50;;;;;;;7.90;67.73;99218.33;1793778;77;21678;-54
2021/11/22 07:16:18;;;;;;;1.67;0.50;;;;;;;7.97;67.24;99217.97;1792500;77;21092;-55
2021/11/22 07:18:44;;;;;;;1.00;0.60;;;;;;;7.97;66.72;99228.69;1796997;77;21141;-55
2021/11/22 07:21:11;;;;;;;0.45;0.30;;;;;;;7.96;66.54;99224.27;1796217;77;21065;-55
2021/11/22 07:23:39;;;;;;;1.12;0.40;;;;;;;8.00;66.30;99229.00;1797613;77;21049;-55
2021/11/22 07:26:05;;;;;;;0.45;0.30;;;;;;;8.03;65.94;99230.20;1793141;77;21046;-55
2021/11/22 07:28:32;;;;;;;0.68;0.30;;;;;;;8.04;65.50;99237.78;1793562;77;21025;-55
2021/11/22 07:30:58;;;;;;;1.27;0.33;;;;;;;8.04;65.14;99242.67;1799479;77;21242;-55
2021/11/22 07:33:25;;;;;;;0.50;0.30;;;;;;;8.06;65.03;99239.93;1795263;77;21009;-55
2021/11/22 07:35:51;;;;;;;0.68;0.40;;;;;;;8.04;64.82;99250.71;1796316;78;22906;-55
2021/11/22 07:38:18;;;;;;;1.00;0.60;;;;;;;8.03;64.81;99256.14;1793228;77;21503;-55
2021/11/22 07:40:46;;;;;;;2.17;0.40;;;;;;;8.03;64.75;99255.67;1794439;77;22428;-55
2021/11/22 07:43:14;;;;;;;0.47;0.30;;;;;;;8.03;64.51;99262.37;1799977;77;21483;-55
2021/11/22 07:45:40;;;;;;;1.05;0.55;;;;;;;8.03;64.35;99265.05;1798865;77;20863;-55
2021/11/22 07:48:07;;;;;;;1.17;0.60;;;;;;;7.99;64.23;99269.66;1795014;78;20850;-55
2021/11/22 07:50:34;;;;;;;1.10;0.40;;;;;;;7.99;64.18;99270.17;1801493;77;20886;-55
2021/11/22 07:53:00;;;;;;;1.57;0.60;;;;;;;7.95;64.30;99260.05;1800900;77;20903;-55
2021/11/22 07:55:27;;;;;;;1.82;0.50;;;;;;;7.96;64.46;99262.25;1798061;77;21550;-55
2021/11/22 07:57:54;;;;;;;0.90;0.60;;;;;;;7.97;64.12;99267.55;1801088;77;21995;-55
2021/11/22 08:00:23;;;;;;;2.05;0.42;;;;;;;7.96;63.91;99277.00;1800737;77;20949;-55
2021/11/22 08:02:50;;;;;;;2.67;0.20;;;;;;;7.91;63.26;99278.52;1798475;77;20897;-55
2021/11/22 08:05:16;;;;;;;0.30;0.20;;;;;;;7.87;62.92;99287.66;1798836;77;20894;-55
2021/11/22 08:07:43;;;;;;;0.80;0.20;;;;;;;7.85;62.15;99289.99;1762847;79;21087;-55
2021/11/22 08:10:51;;;;;;;0.50;0.20;;;;;;;7.82;61.30;99294.17;1763967;78;20936;-54
2021/11/22 08:12:47;;;;;;;1.72;0.47;;;;;;;7.74;60.77;99296.31;1754069;78;20906;-55
2021/11/22 08:15:13;;;;;;;0.40;0.20;;;;;;;7.62;60.84;99296.38;1773121;78;20933;-55
2021/11/22 08:17:42;;;;;;;0.30;0.20;;;;;;;7.53;60.70;99307.02;1771620;78;20925;-54
2021/11/22 08:20:11;;;;;;;0.10;0.10;;;;;;;7.47;60.54;99314.45;1769702;78;21123;-55
2021/11/22 08:22:38;;;;;;;0.17;0.10;;;;;;;7.38;60.27;99305.00;1769583;78;20914;-55
2021/11/22 08:25:05;;;;;;;0.30;0.10;;;;;;;7.35;60.17;99316.29;1772604;78;20886;-55
2021/11/22 08:27:32;;;;;;;0.30;0.10;;;;;;;7.31;59.96;99326.28;1770275;78;20929;-54
2021/11/22 08:30:03;;;;;;;0.10;0.10;;;;;;;7.29;59.70;99316.55;1767421;78;21087;-54
2021/11/22 08:32:30;;;;;;;0.77;0.00;;;;;;;7.23;59.35;99330.20;1770976;78;21186;-54
2021/11/22 08:34:57;;;;;;;0.40;0.10;;;;;;;7.16;59.32;99327.76;1738632;81;20926;-54
2021/11/22 08:37:23;;;;;;;0.07;0.00;;;;;;;7.13;59.41;99324.36;1748709;79;20996;-55
2021/11/22 08:39:50;;;;;;;2.93;0.20;;;;;;;7.12;59.47;99332.85;1748033;80;20993;-55
2021/11/22 08:42:17;;;;;;;0.60;0.20;;;;;;;7.11;59.86;99335.12;1750256;79;20918;-55
2021/11/22 08:44:43;;;;;;;1.30;0.40;;;;;;;7.11;60.51;99340.94;1749670;80;21782;-54
2021/11/22 08:47:10;;;;;;;1.57;0.30;;;;;;;7.11;60.65;99336.92;1750551;81;20922;-55
2021/11/22 08:49:36;;;;;;;0.50;0.30;;;;;;;7.11;60.94;99335.58;1753747;79;20946;-54
2021/11/22 08:52:03;;;;;;;0.50;0.30;;;;;;;7.15;61.06;99331.83;1748247;79;21104;-55
2021/11/22 08:54:30;;;;;;;0.70;0.50;;;;;;;7.17;60.89;99342.89;1748371;79;21072;-55
2021/11/22 08:56:56;;;;;;;0.67;0.50;;;;;;;7.18;61.33;99344.64;1763881;78;23038;-55
2021/11/22 08:59:23;;;;;;;1.00;0.40;;;;;;;7.19;61.83;99349.52;1767493;80;21013;-55
2021/11/22 09:01:49;;;;;;;1.57;0.50;;;;;;;7.19;62.06;99346.38;1767520;80;21081;-55
2021/11/22 09:04:15;;;;;;;2.00;0.50;;;;;;;7.21;62.18;99354.36;1745805;80;21056;-55
2021/11/22 09:06:42;;;;;;;0.83;0.40;;;;;;;7.23;62.10;99352.96;1739694;80;21073;-54
2021/11/22 09:09:09;;;;;;;2.07;0.50;;;;;;;7.26;62.15;99352.34;1770110;78;21131;-55
2021/11/22 09:11:37;;;;;;;2.60;0.50;;;;;;;7.30;62.10;99355.78;1768778;80;21175;-58
2021/11/22 09:14:04;;;;;;;0.50;0.40;;;;;;;7.33;61.91;99353.83;1758285;79;21147;-55
2021/11/22 09:16:30;;;;;;;1.47;0.30;;;;;;;7.35;61.69;99364.02;1732761;80;21177;-54
2021/11/22 09:18:58;;;;;;;0.60;0.37;;;;;;;7.39;61.35;99364.31;1761441;79;21093;-54
2021/11/22 09:21:26;;;;;;;0.50;0.30;;;;;;;7.39;61.06;99362.10;1762738;79;21064;-55
2021/11/22 09:23:53;;;;;;;1.00;0.43;;;;;;;7.42;61.05;99364.16;1764421;79;20914;-55
2021/11/22 09:26:20;;;;;;;1.10;0.50;;;;;;;7.43;60.23;99369.92;1738171;80;21072;-55
2021/11/22 09:28:47;;;;;;;0.40;0.30;;;;;;;7.40;60.29;99368.70;1763034;78;20970;-55
2021/11/22 09:31:13;;;;;;;0.43;0.30;;;;;;;7.40;59.74;99356.66;1728642;81;21463;-55
2021/11/22 09:33:41;;;;;;;0.60;0.30;;;;;;;7.37;59.34;99362.16;1730558;80;21497;-55
2021/11/22 09:36:08;;;;;;;0.50;0.30;;;;;;;7.33;59.29;99370.36;1730871;80;21510;-55
2021/11/22 09:38:34;;;;;;;1.17;0.30;;;;;;;7.30;59.35;99362.02;1724912;80;21104;-55
2021/11/22 09:41:01;;;;;;;0.67;0.20;;;;;;;7.30;59.53;99364.69;1737636;80;21093;-55
2021/11/22 09:43:29;;;;;;;1.90;0.20;;;;;;;7.32;59.38;99365.94;1757137;78;21536;-55
2021/11/22 09:45:56;;;;;;;0.50;0.20;;;;;;;7.31;59.16;99369.58;1769829;78;23019;-55
2021/11/22 09:48:23;;;;;;;0.20;0.20;;;;;;;7.28;58.97;99365.21;1762612;78;21104;-54
2021/11/22 09:50:49;;;;;;;0.20;0.20;;;;;;;7.27;59.01;99363.92;1762655;78;20933;-55
2021/11/22 09:53:16;;;;;;;0.50;0.30;;;;;;;7.25;58.91;99365.79;1759298;78;22183;-55
2021/11/22 09:55:42;;;;;;;1.53;0.20;;;;;;;7.23;59.05;99367.19;1763198;78;21449;-55
2021/11/22 09:58:12;;;;;;;2.33;0.20;;;;;;;7.23;59.12;99367.19;1758608;79;21660;-55
2021/11/22 10:00:48;;;;;;;0.30;0.20;;;;;;;7.26;58.92;99372.89;1764136;78;21634;-55
2021/11/22 10:03:17;;;;;;;0.33;0.27;;;;;;;7.24;58.93;99370.27;1757058;78;21624;-54
2021/11/22 10:05:45;;;;;;;0.60;0.40;;;;;;;7.22;58.68;99378.86;1758900;78;20902;-55
2021/11/22 10:08:17;;;;;;;0.70;0.27;;;;;;;7.16;58.52;99371.05;1757856;79;21289;-55
2021/11/22 10:10:59;;;;;;;0.30;0.20;;;;;;;7.11;58.48;99369.91;1760703;78;21138;-54
2021/11/22 10:13:40;;;;;;;0.20;0.10;;;;;;;7.10;58.63;99372.64;1767315;78;22327;-54
2021/11/22 10:16:21;;;;;;;0.10;0.10;;;;;;;7.12;58.66;99371.66;1775799;78;20940;-55
2021/11/22 10:18:55;;;;;;;0.27;0.20;;;;;;;7.15;58.72;99371.98;1771469;78;22286;-55
2021/11/22 10:21:37;;;;;;;0.90;0.30;;;;;;;7.18;58.67;99367.39;1764214;78;21104;-55
2021/11/22 10:25:45;;;;;;;0.37;0.20;;;;;;;7.31;58.57;99369.11;1864390;74;22541;-54
2021/11/22 10:28:19;;;;;;;1.13;0.20;;;;;;;7.32;58.57;99373.50;1848491;75;21343;-54
2021/11/22 10:30:55;;;;;;;2.50;0.20;;;;;;;7.39;58.41;99368.80;1851336;75;21103;-55
2021/11/22 10:33:24;;;;;;;0.30;0.20;;;;;;;7.45;58.32;99362.71;1854874;76;20890;-54
2021/11/22 10:35:53;;;;;;;0.20;0.20;;;;;;;7.53;58.09;99368.61;1854512;76;20898;-54
2021/11/22 10:38:30;;;;;;;0.30;0.27;;;;;;;7.59;57.74;99371.49;1845356;75;20984;-55
2021/11/22 10:41:08;;;;;;;0.40;0.30;;;;;;;7.61;57.63;99373.64;1845409;76;21083;-55
2021/11/22 10:43:52;;;;;;;0.50;0.30;;;;;;;7.63;57.56;99366.89;1848780;76;22903;-54
2021/11/22 10:46:30;;;;;;;0.50;0.20;;;;;;;7.64;57.64;99364.16;1851939;75;20992;-54
2021/11/22 10:49:16;;;;;;;0.50;0.30;;;;;;;7.67;57.51;99368.02;1855411;76;21341;-55
2021/11/22 10:51:46;;;;;;;1.13;0.30;;;;;;;7.66;57.40;99371.62;1855547;76;20949;-55
2021/11/22 10:54:19;;;;;;;0.20;0.20;;;;;;;7.68;57.33;99367.55;1850902;76;20949;-55
2021/11/22 10:56:52;;;;;;;0.20;0.20;;;;;;;7.70;57.31;99368.37;1853936;76;21082;-55
2021/11/22 10:59:21;;;;;;;0.20;0.15;;;;;;;7.74;57.25;99360.12;1851236;76;20895;-55
2021/11/22 11:01:52;;;;;;;0.20;0.10;;;;;;;7.83;57.16;99368.23;1853322;76;20930;-55
2021/11/22 11:04:25;;;;;;;0.40;0.20;;;;;;;7.89;56.93;99366.65;1853230;75;21576;-55
2021/11/22 11:07:01;;;;;;;0.10;0.10;;;;;;;7.94;56.76;99359.27;1852671;75;20921;-55
2021/11/22 11:09:38;;;;;;;0.33;0.20;;;;;;;7.98;56.83;99370.27;1853512;75;21076;-55
2021/11/22 11:12:20;;;;;;;0.50;0.20;;;;;;;8.03;56.88;99370.92;1850485;75;20877;-55
2021/11/22 11:14:52;;;;;;;0.30;0.20;;;;;;;8.07;56.92;99373.02;1854254;76;20919;-55
2021/11/22 11:17:34;;;;;;;0.30;0.23;;;;;;;8.08;56.24;99370.24;1850578;76;20988;-54
2021/11/22 11:20:11;;;;;;;0.82;0.30;;;;;;;8.02;55.79;99369.64;1852252;76;21629;-54
2021/11/22 11:22:38;;;;;;;0.20;0.20;;;;;;;7.92;56.09;99367.83;1850964;75;21103;-54
2021/11/22 11:25:05;;;;;;;0.13;0.10;;;;;;;7.86;55.69;99378.83;1838972;76;21123;-54
2021/11/22 11:27:41;;;;;;;0.20;0.10;;;;;;;7.80;55.49;99374.61;1831762;76;20948;-55
2021/11/22 11:30:07;;;;;;;0.30;0.20;;;;;;;7.78;55.03;99374.27;1827717;77;21472;-55
2021/11/22 11:32:35;;;;;;;0.53;0.30;;;;;;;7.72;55.06;99384.78;1835115;76;20895;-55
2021/11/22 11:35:02;;;;;;;0.50;0.20;;;;;;;7.71;54.82;99386.19;1738029;80;21126;-55
2021/11/22 11:38:09;;;;;;;1.85;0.20;;;;;;;7.69;54.91;99382.70;1781021;79;21095;-55
2021/11/22 11:40:57;;;;;;;0.40;0.40;;;;;;;7.71;55.14;99382.17;1778989;79;21077;-54
2021/11/22 11:43:53;;;;;;;1.70;0.20;;;;;;;7.77;55.05;99372.05;1779326;79;21044;-54
2021/11/22 11:47:07;;;;;;;1.80;0.45;;;;;;;7.85;55.12;99374.41;1790181;78;21454;-55
2021/11/22 11:49:34;;;;;;;0.70;0.33;;;;;;;7.90;54.71;99377.77;1775388;78;21486;-54
2021/11/22 11:52:22;;;;;;;1.35;0.40;;;;;;;7.91;54.54;99381.70;1779084;79;21353;-54